Flight Track Log - Related Links

Times and Time Zones

All times are in EDT time to prevent confusion due to time zone crossing. See the N175PL flight status page for this flight to view local times or setup timezone preferences in your user account.

Time Position Orientation Groundspeed Altitude Reporting Facility
EDT Latitude Longitude Course Direction KTS MPH feet Rate Location/Type
Mon 12:04:46 PM 27.5208 -99.4442 170° South 155 178 1,400  Level Houston Center
Mon 12:05:48 PM 27.4831 -99.4208 151° Southeast 155 178 3,500 1,887 Climbing Houston Center
Mon 12:06:50 PM 27.4400 -99.4111 169° South 157 181 5,300 1,839 Climbing Houston Center
Mon 12:07:00 PM 27.1830 -99.3708 174° South  Level FlightAware Approximate
Mon 12:07:52 PM 27.3833 -99.4042 174° South 165 190 7,300  Level Houston Center
Mon 12:08:00 PM 27.1110 -99.3589 170° South  Level FlightAware Approximate
Mon 12:08:55 PM 27.3344 -99.3967 172° South 171 197 9,000  Level Houston Center
Mon 12:09:00 PM 27.0393 -99.3445 170° South  Level FlightAware Approximate
Mon 12:09:57 PM 27.2839 -99.3878 171° South 177 204 10,700  Level Houston Center
Mon 12:10:59 PM 27.2336 -99.3797 172° South 181 208 12,500 1,742 Climbing Houston Center
Mon 12:12:01 PM 27.1839 -99.3722 172° South 181 208 14,300 1,742 Climbing Houston Center
Mon 12:13:03 PM 27.1236 -99.3625 172° South 181 208 16,100 1,597 Climbing Houston Center
Mon 12:14:05 PM 27.0689 -99.3547 173° South 188 216 17,600 1,452 Climbing Houston Center
Mon 12:15:07 PM 27.0142 -99.3469 173° South 194 223 19,100 1,355 Climbing Houston Center
Mon 12:16:09 PM 26.9581 -99.3386 172° South 198 228 20,400 1,248 Climbing Houston Center
Mon 12:17:12 PM 26.8986 -99.3300 173° South 212 244 21,700 1,238 Climbing Houston Center
Mon 12:19:00 PM 26.7700 -99.3046 174° South  Level FlightAware Approximate
Mon 12:26:00 PM 26.2625 -99.2601 174° South  Level FlightAware Approximate
Mon 12:27:00 PM 26.1901 -99.2513 174° South  Level FlightAware Approximate
Mon 12:28:00 PM 26.1177 -99.2425 174° South  Level FlightAware Approximate
Mon 12:29:00 PM 26.0453 -99.2337 174° South  Level FlightAware Approximate
Mon 12:30:00 PM 25.9729 -99.2249 174° South  Level FlightAware Approximate
Mon 12:31:00 PM 25.9005 -99.2162 174° South  Level FlightAware Approximate
Mon 12:32:00 PM 25.8281 -99.2074 174° South  Level FlightAware Approximate
Mon 12:33:00 PM 25.7557 -99.1987 174° South  Level FlightAware Approximate
Mon 12:34:00 PM 25.6833 -99.1899 174° South  Level FlightAware Approximate
Mon 12:35:00 PM 25.6109 -99.1812 174° South  Level FlightAware Approximate
Mon 12:36:00 PM 25.5385 -99.1725 174° South  Level FlightAware Approximate
Mon 12:37:00 PM 25.4661 -99.1638 174° South  Level FlightAware Approximate
Mon 12:38:00 PM 25.3937 -99.1551 174° South  Level FlightAware Approximate
Mon 12:39:00 PM 25.3213 -99.1464 174° South  Level FlightAware Approximate
Mon 12:40:00 PM 25.2489 -99.1377 174° South  Level FlightAware Approximate
Mon 12:41:00 PM 25.1765 -99.1290 174° South  Level FlightAware Approximate
Mon 12:42:00 PM 25.1041 -99.1204 174° South  Level FlightAware Approximate
Mon 12:43:00 PM 25.0317 -99.1117 174° South  Level FlightAware Approximate
Mon 12:44:00 PM 24.9593 -99.1031 174° South  Level FlightAware Approximate
Mon 12:45:00 PM 24.8869 -99.0943 174° South  Level FlightAware Approximate
Mon 12:46:00 PM 24.8145 -99.0854 174° South  Level FlightAware Approximate
Mon 12:47:00 PM 24.7421 -99.0766 174° South  Level FlightAware Approximate
Mon 12:48:00 PM 24.6698 -99.0677 174° South  Level FlightAware Approximate
Mon 12:49:00 PM 24.5974 -99.0588 174° South  Level FlightAware Approximate
Mon 12:50:00 PM 24.5250 -99.0500 174° South  Level FlightAware Approximate
Mon 12:51:00 PM 24.4526 -99.0412 174° South  Level FlightAware Approximate
Mon 12:52:00 PM 24.3802 -99.0323 174° South  Level FlightAware Approximate
Mon 12:53:00 PM 24.3078 -99.0236 174° South  Level FlightAware Approximate
Mon 12:54:00 PM 24.2355 -99.0147 174° South  Level FlightAware Approximate
Mon 12:55:00 PM 24.1631 -99.0060 174° South  Level FlightAware Approximate
Mon 12:56:00 PM 24.0907 -98.9972 174° South  Level FlightAware Approximate
Mon 12:57:00 PM 24.0183 -98.9884 174° South  Level FlightAware Approximate
Mon 12:58:00 PM 23.9459 -98.9797 174° South  Level FlightAware Approximate
Mon 12:59:00 PM 23.8735 -98.9709 174° South  Level FlightAware Approximate
Mon 01:00:00 PM 23.8011 -98.9622 174° South  Level FlightAware Approximate
Mon 01:01:00 PM 23.7288 -98.9535 174° South  Level FlightAware Approximate
Mon 01:02:00 PM 23.6589 -98.9669 201° Southwest  Level FlightAware Approximate
Mon 01:03:00 PM 23.5907 -98.9948 201° Southwest  Level FlightAware Approximate
Mon 01:04:00 PM 23.5225 -99.0227 201° Southwest  Level FlightAware Approximate
Mon 01:05:00 PM 23.4543 -99.0506 201° Southwest  Level FlightAware Approximate
Mon 01:06:00 PM 23.3862 -99.0784 201° Southwest  Level FlightAware Approximate
Mon 01:07:00 PM 23.3184 -99.1075 205° Southwest  Level FlightAware Approximate
Mon 01:08:00 PM 23.2509 -99.1370 201° Southwest  Level FlightAware Approximate
Mon 01:09:00 PM 23.1828 -99.1651 201° Southwest  Level FlightAware Approximate
Mon 01:10:00 PM 23.1147 -99.1932 201° Southwest  Level FlightAware Approximate
Mon 01:11:00 PM 23.0466 -99.2213 201° Southwest  Level FlightAware Approximate
Mon 01:12:00 PM 22.9785 -99.2493 201° Southwest  Level FlightAware Approximate
Mon 01:13:00 PM 22.9104 -99.2773 201° Southwest  Level FlightAware Approximate
Mon 01:14:00 PM 22.8423 -99.3053 201° Southwest  Level FlightAware Approximate
Mon 01:15:00 PM 22.7741 -99.3333 201° Southwest  Level FlightAware Approximate
Mon 01:16:00 PM 22.7060 -99.3610 200° South  Level FlightAware Approximate
Mon 01:17:00 PM 22.6377 -99.3884 200° South  Level FlightAware Approximate
Mon 01:18:00 PM 22.5694 -99.4158 200° South  Level FlightAware Approximate
Mon 01:19:00 PM 22.5011 -99.4432 200° South  Level FlightAware Approximate
Mon 01:20:00 PM 22.4328 -99.4705 200° South  Level FlightAware Approximate
Mon 01:21:00 PM 22.3645 -99.4978 200° South  Level FlightAware Approximate
Mon 01:22:00 PM 22.2961 -99.5251 200° South  Level FlightAware Approximate
Mon 01:23:00 PM 22.2278 -99.5523 200° South  Level FlightAware Approximate
Mon 01:24:00 PM 22.1595 -99.5796 200° South  Level FlightAware Approximate
Mon 01:25:00 PM 22.0905 -99.6017 202° Southwest  Level FlightAware Approximate
Mon 01:26:00 PM 22.0229 -99.6307 202° Southwest  Level FlightAware Approximate
Mon 01:27:00 PM 21.9546 -99.6582 200° South  Level FlightAware Approximate
Mon 01:28:00 PM 21.8864 -99.6855 200° South  Level FlightAware Approximate
Mon 01:29:00 PM 21.8181 -99.7128 200° South  Level FlightAware Approximate
Mon 01:30:00 PM 21.7498 -99.7401 200° South  Level FlightAware Approximate
Mon 01:31:00 PM 21.6815 -99.7673 199° South  Level FlightAware Approximate
Mon 01:32:00 PM 21.6129 -99.7935 199° South  Level FlightAware Approximate
Mon 01:33:00 PM 21.5442 -99.8196 199° South  Level FlightAware Approximate
Mon 01:34:00 PM 21.4755 -99.8456 199° South  Level FlightAware Approximate
Mon 01:35:00 PM 21.4069 -99.8717 199° South  Level FlightAware Approximate
Mon 01:36:00 PM 21.3382 -99.8977 199° South  Level FlightAware Approximate
Mon 01:37:00 PM 21.2695 -99.9237 199° South  Level FlightAware Approximate
Mon 01:38:00 PM 21.2008 -99.9497 199° South  Level FlightAware Approximate
Mon 01:39:00 PM 21.1335 -99.9796 203° Southwest  Level FlightAware Approximate
Mon 01:40:00 PM 21.0662 -100.0095 203° Southwest  Level FlightAware Approximate
Mon 01:41:00 PM 20.9985 -100.0381 201° Southwest  Level FlightAware Approximate
Mon 01:42:00 PM 20.9307 -100.0664 201° Southwest  Level FlightAware Approximate
Mon 01:43:00 PM 20.8628 -100.0947 201° Southwest  Level FlightAware Approximate
Mon 01:44:00 PM 20.7936 -100.1188 197° South  Level FlightAware Approximate
Mon 01:45:00 PM 20.7241 -100.1420 197° South  Level FlightAware Approximate
Mon 01:46:00 PM 20.6563 -100.1701 197° South  Level FlightAware Approximate
Mon 01:47:00 PM 20.6173 -100.1857 270° West  Level Estimated
Mon 01:48:00 PM 20.6173 -100.1857 270° West  Level Estimated
Mon 01:49:00 PM 20.6173 -100.1857 270° West  Level Estimated
Mon 01:50:00 PM 20.6173 -100.1857 270° West  Level Estimated
Mon 01:51:00 PM 20.6173 -100.1857 270° West  Level Estimated
Mon 01:52:00 PM 20.6173 -100.1857 270° West  Level Estimated
Mon 01:53:00 PM 20.6173 -100.1857 270° West  Level Estimated
Mon 01:54:00 PM 20.6173 -100.1857 270° West  Level Estimated
Mon 01:55:00 PM 20.6173 -100.1857 270° West  Level Estimated
Mon 01:56:00 PM 20.6173 -100.1857 270° West  Level Estimated
Mon 01:57:00 PM 20.6173 -100.1857 270° West  Level Estimated
Mon 01:58:00 PM 20.6173 -100.1857 270° West  Level Estimated

Login

Don't have an account? Register now (free) for customized features, flight alerts, and more!